Strona główna
METAR-TAF:

METAR-TAF

Lotnisko :

Penn Valley Airport

Selinsgrove, Pensylwania, Stany Zjednoczone

Szerokość geograficzna: 40-49-09N, Długość geograficzna: 076-51-58W, wysokość: 137 m

Aktualna obserwacja pogody

Raport powstał 19 minut temu, godzina 22:20 UTC
Wiatr 4 kt od północno-północny wschód
Temperatura 4°C
Wilgotność 87%
Ciśnienie 1013 hPa
Widzialność: 16.1 km
Przerywane chmury na wysokości 1200 ft
Zachmurzenie całkowite na wysokości 3900 ft

METAR: KSEG 162220Z AUTO 02004KT 10SM BKN012 OVC039 04/02 A2992 RMK AO2 T00390022

czas: 17:39 (22:39 UTC)


TAF: brakujący

Obserwacja i prognoza pogody dla ponad 4000 lotnisk (raport METAR i TAF).

Dostępne stacje oznaczono żółtymi i czerwonymi punktami na mapie.

Najedź kursorem aby zobaczyć nazwę stacji.

Kliknij aby zobaczyć obserwacje i prognozy pogody.

Aby zmienić mapę: kliknij na zielony przycisk z czarnym krzyżykiem, aby powiększyć; na zielony przycisk z myślnikiem, aby pomniejszyć; na zielone strzałki, aby przejść do map sąsiednich.


METAR-TAF: